Time;durP1;ratioP1;P1;durP2;ratioP2;P2;SDS_P1;SDS_P2;PMS_P1;PMS_P2;Temp;Humidity;BMP_temperature;BMP_pressure;BME280_temperature;BME280_humidity;BME280_pressure;Samples;Min_cycle;Max_cycle;Signal;HPM_P1;HPM_P2
2022/10/13 00:05:28;;;;;;;12.07;9.05;;;;;;;22.70;56.72;101125.44;20665403;28;20042;-72
2022/10/13 00:15:30;;;;;;;8.60;7.40;;;;;;;22.66;56.47;101123.97;20659874;28;20052;-72
2022/10/13 00:25:31;;;;;;;10.00;7.90;;;;;;;22.65;56.50;101117.84;20661450;28;20038;-73
2022/10/13 00:35:32;;;;;;;10.05;8.25;;;;;;;22.65;56.43;101119.66;20659581;28;20409;-73
2022/10/13 00:45:32;;;;;;;10.50;8.27;;;;;;;22.63;56.46;101117.13;20653537;28;20045;-72
2022/10/13 00:55:35;;;;;;;9.93;7.43;;;;;;;22.62;56.78;101117.22;20652958;28;20050;-73
2022/10/13 01:05:37;;;;;;;9.18;7.40;;;;;;;22.60;56.66;101111.22;20666133;28;20042;-73
2022/10/13 01:15:46;;;;;;;8.30;7.10;;;;;;;22.59;56.85;101106.91;20659661;28;20049;-72
2022/10/13 01:25:52;;;;;;;10.82;8.10;;;;;;;22.58;56.69;101118.41;20652008;28;20034;-72
2022/10/13 01:35:58;;;;;;;11.27;7.85;;;;;;;22.57;56.38;101116.72;20646669;28;20173;-72
2022/10/13 01:46:05;;;;;;;9.77;7.00;;;;;;;22.55;56.51;101108.91;20657031;28;20080;-72
2022/10/13 01:56:06;;;;;;;9.45;7.18;;;;;;;22.53;56.68;101095.84;20653400;28;20444;-72
2022/10/13 02:06:20;;;;;;;8.43;7.53;;;;;;;22.52;56.52;101103.84;20658043;28;20077;-72
2022/10/13 02:16:22;;;;;;;9.27;7.63;;;;;;;22.51;56.33;101081.91;20652374;28;20408;-72
2022/10/13 02:26:23;;;;;;;10.43;7.70;;;;;;;22.50;56.59;101098.69;20654704;28;20096;-72
2022/10/13 02:36:24;;;;;;;8.88;7.13;;;;;;;22.50;56.36;101095.22;20648527;28;20042;-72
2022/10/13 02:46:25;;;;;;;9.00;7.00;;;;;;;22.48;56.57;101095.28;20654661;28;20137;-72
2022/10/13 02:56:25;;;;;;;9.95;7.80;;;;;;;22.48;56.35;101103.22;20651426;28;20046;-72
2022/10/13 03:06:25;;;;;;;8.38;6.68;;;;;;;22.48;56.43;101094.47;20648066;28;20053;-72
2022/10/13 03:16:26;;;;;;;8.50;7.13;;;;;;;22.46;56.41;101088.44;20647196;28;20046;-72
2022/10/13 03:26:27;;;;;;;8.43;6.80;;;;;;;22.44;56.43;101088.56;20663865;28;20107;-72
2022/10/13 03:36:27;;;;;;;8.38;6.80;;;;;;;22.43;56.60;101088.69;20663106;28;20092;-72
2022/10/13 03:46:33;;;;;;;8.02;6.68;;;;;;;22.43;56.70;101088.69;20650078;28;20042;-72
2022/10/13 03:56:34;;;;;;;7.93;6.53;;;;;;;22.48;57.53;101079.47;20668198;28;20934;-72
2022/10/13 04:06:35;;;;;;;10.40;6.78;;;;;;;22.51;57.32;101087.16;20667253;28;20496;-71
2022/10/13 04:16:35;;;;;;;11.23;7.35;;;;;;;22.55;57.93;101080.72;20655658;28;20519;-70
2022/10/13 04:26:35;;;;;;;10.80;6.65;;;;;;;22.55;58.54;101078.06;20653858;28;20397;-73
2022/10/13 04:36:36;;;;;;;11.10;7.18;;;;;;;22.55;58.50;101077.25;20674035;28;20046;-73
2022/10/13 04:46:36;;;;;;;12.40;6.50;;;;;;;22.54;58.52;101079.03;20667708;28;20042;-75
2022/10/13 04:56:37;;;;;;;9.20;6.25;;;;;;;22.54;57.89;101075.53;20676340;28;20046;-77
2022/10/13 05:06:40;;;;;;;18.73;8.95;;;;;;;22.27;54.45;101071.25;20678214;28;20037;-77
2022/10/13 05:16:40;;;;;;;13.52;9.65;;;;;;;22.27;54.70;101071.25;20676900;28;20046;-75
2022/10/13 05:26:41;;;;;;;18.73;9.52;;;;;;;22.39;56.32;101077.50;20674475;28;20096;-76
2022/10/13 05:36:41;;;;;;;21.60;9.55;;;;;;;22.40;56.84;101079.19;20653319;28;20052;-76
2022/10/13 05:46:43;;;;;;;20.60;9.55;;;;;;;22.28;54.92;101083.50;20657891;28;20042;-76
2022/10/13 05:56:57;;;;;;;18.98;9.20;;;;;;;22.36;56.02;101090.88;20655221;28;20129;-76
2022/10/13 06:06:57;;;;;;;17.88;8.52;;;;;;;22.36;56.22;101102.28;20644443;28;20054;-76
2022/10/13 06:16:58;;;;;;;15.10;9.15;;;;;;;22.38;56.33;101104.84;20654350;28;20069;-76
2022/10/13 06:26:58;;;;;;;13.32;7.97;;;;;;;22.39;56.36;101101.25;20654658;28;20031;-76
2022/10/13 06:36:59;;;;;;;15.68;7.53;;;;;;;22.38;56.41;101113.59;20665938;28;20046;-73
2022/10/13 06:46:59;;;;;;;12.32;7.68;;;;;;;22.39;56.22;101111.81;20649465;28;20057;-74
2022/10/13 06:57:00;;;;;;;14.30;7.97;;;;;;;22.37;56.34;101106.63;20649204;28;20050;-77
2022/10/13 07:07:00;;;;;;;10.10;7.28;;;;;;;22.42;56.59;101108.09;20660258;28;20771;-79
2022/10/13 07:17:01;;;;;;;13.65;7.78;;;;;;;22.43;56.44;101109.78;20671674;28;20120;-78
2022/10/13 07:27:01;;;;;;;13.68;7.80;;;;;;;22.43;56.69;101107.16;20667037;28;20521;-79
2022/10/13 07:37:02;;;;;;;12.75;7.90;;;;;;;22.44;56.58;101106.22;20677209;28;20666;-78
2022/10/13 07:47:02;;;;;;;10.10;7.30;;;;;;;22.47;56.44;101108.59;20654375;28;20038;-78
2022/10/13 07:57:03;;;;;;;9.75;6.90;;;;;;;22.48;56.65;101112.94;20695827;28;20109;-79
2022/10/13 08:07:04;;;;;;;9.55;6.80;;;;;;;22.49;56.61;101104.91;20676446;28;20054;-78
2022/10/13 08:17:05;;;;;;;11.37;6.83;;;;;;;22.51;56.23;101097.72;20679690;28;20045;-80
2022/10/13 08:27:13;;;;;;;7.63;6.30;;;;;;;22.53;56.52;101094.97;20696005;28;20046;-78
2022/10/13 08:37:15;;;;;;;9.23;6.22;;;;;;;22.56;56.51;101086.84;20684150;28;20061;-78
2022/10/13 08:47:19;;;;;;;;;;;;;;;22.57;56.34;101085.91;20679226;28;20046;-78
2022/10/13 08:57:20;;;;;;;7.78;6.00;;;;;;;22.59;56.34;101070.78;20677101;28;19929;-78
2022/10/13 09:07:25;;;;;;;11.20;7.05;;;;;;;22.49;50.57;101070.59;20671352;28;20132;-79
2022/10/13 09:17:26;;;;;;;10.70;6.68;;;;;;;21.95;42.95;101062.97;20668937;28;20128;-78
2022/10/13 09:27:26;;;;;;;7.88;5.45;;;;;;;22.26;47.60;101055.56;20669351;28;20042;-78
2022/10/13 09:37:27;;;;;;;10.73;5.40;;;;;;;22.42;49.82;101055.31;20681992;28;20037;-78
2022/10/13 09:47:29;;;;;;;8.68;5.30;;;;;;;22.54;51.71;101047.38;20718007;28;20038;-78
2022/10/13 09:57:44;;;;;;;8.27;4.93;;;;;;;22.64;53.03;101038.75;20710027;28;20038;-79
2022/10/13 10:07:45;;;;;;;8.88;4.88;;;;;;;22.74;53.40;101028.38;20677942;28;20062;-79
2022/10/13 10:17:53;;;;;;;10.68;5.10;;;;;;;22.83;53.93;101020.59;20664564;28;20105;-78
2022/10/13 10:28:13;;;;;;;7.28;5.28;;;;;;;22.92;53.96;101010.31;20673944;28;20236;-78
2022/10/13 10:38:35;;;;;;;7.30;4.90;;;;;;;23.01;54.15;100999.91;20668096;28;20058;-77
2022/10/13 10:48:38;;;;;;;5.72;4.50;;;;;;;23.10;54.27;100985.16;20670053;28;20045;-76
2022/10/13 10:58:43;;;;;;;;;;;;;;;23.18;54.28;100971.41;20670398;28;20042;-76
2022/10/13 11:08:45;;;;;;;6.88;4.45;;;;;;;23.29;54.24;100952.91;20669888;28;19937;-77
2022/10/13 11:19:06;;;;;;;5.97;4.22;;;;;;;23.37;54.22;100947.03;20659049;28;20902;-76
2022/10/13 11:29:17;;;;;;;6.03;4.40;;;;;;;23.44;54.49;100926.25;20658890;28;20049;-76
2022/10/13 11:39:26;;;;;;;6.13;4.30;;;;;;;23.57;54.62;100920.81;20675092;28;20169;-76
2022/10/13 11:49:43;;;;;;;7.55;4.82;;;;;;;23.64;54.30;100904.38;20688702;28;20069;-77
2022/10/13 11:59:46;;;;;;;7.00;4.00;;;;;;;23.73;54.24;100889.56;20688536;28;20104;-77
2022/10/13 12:09:53;;;;;;;7.57;4.30;;;;;;;23.80;53.95;100887.25;20693779;28;20065;-75
2022/10/13 12:19:55;;;;;;;6.88;4.07;;;;;;;23.86;54.33;100873.53;20683437;28;20050;-77
2022/10/13 12:29:58;;;;;;;5.82;3.85;;;;;;;23.93;54.28;100864.16;20700757;28;20049;-77
2022/10/13 12:40:00;;;;;;;6.90;3.92;;;;;;;23.96;54.12;100853.34;20667853;28;20066;-76
2022/10/13 12:50:28;;;;;;;6.40;4.20;;;;;;;23.96;54.01;100856.00;20668767;28;20050;-75
2022/10/13 13:00:29;;;;;;;4.93;3.70;;;;;;;23.99;54.04;100839.03;20666249;28;20057;-76
2022/10/13 13:10:34;;;;;;;6.60;3.70;;;;;;;24.02;54.13;100835.28;20696788;28;20045;-76
2022/10/13 13:20:36;;;;;;;5.90;3.70;;;;;;;24.04;53.99;100833.38;20691239;28;20531;-75
2022/10/13 13:30:37;;;;;;;7.85;3.90;;;;;;;24.07;53.99;100812.78;20685721;28;20038;-76
2022/10/13 13:40:37;;;;;;;11.50;4.10;;;;;;;24.10;54.45;100809.03;20700506;28;20113;-75
2022/10/13 13:50:38;;;;;;;7.00;3.50;;;;;;;24.11;53.96;100808.09;20703663;28;20041;-75
2022/10/13 14:00:40;;;;;;;4.43;3.70;;;;;;;24.10;54.02;100799.28;20695076;28;20043;-76
2022/10/13 14:10:41;;;;;;;5.20;3.88;;;;;;;24.06;54.21;100800.53;20707471;28;20042;-75
2022/10/13 14:20:41;;;;;;;5.28;3.50;;;;;;;24.07;54.23;100804.00;20694347;28;20061;-76
2022/10/13 14:30:41;;;;;;;12.23;4.40;;;;;;;24.06;54.45;100794.38;20662507;28;20053;-75
2022/10/13 14:40:42;;;;;;;11.82;4.15;;;;;;;24.06;54.20;100794.38;20656213;28;20061;-73
2022/10/13 14:50:43;;;;;;;9.45;5.13;;;;;;;23.97;50.99;100790.69;20657009;28;20046;-73
2022/10/13 15:00:43;;;;;;;9.88;5.88;;;;;;;23.89;51.22;100787.81;20659284;28;20064;-75
2022/10/13 15:10:44;;;;;;;11.13;6.45;;;;;;;23.80;48.99;100784.13;20667372;28;20038;-73
2022/10/13 15:20:45;;;;;;;12.55;7.10;;;;;;;23.48;43.42;100787.59;20677917;28;20054;-74
2022/10/13 15:30:46;;;;;;;14.93;6.30;;;;;;;23.52;47.65;100774.97;20685603;28;20045;-76
2022/10/13 15:40:46;;;;;;;12.50;6.22;;;;;;;23.52;49.50;100782.91;20680224;28;20100;-72
2022/10/13 15:50:47;;;;;;;9.07;5.55;;;;;;;23.50;50.97;100777.75;20665370;28;20112;-72
2022/10/13 16:00:48;;;;;;;9.80;5.97;;;;;;;23.49;51.78;100779.53;20658307;28;20077;-72
2022/10/13 16:10:48;;;;;;;10.60;5.47;;;;;;;23.40;52.52;100774.16;20649601;28;20050;-72
2022/10/13 16:20:49;;;;;;;8.55;5.35;;;;;;;23.34;52.67;100768.41;20651340;28;20448;-72
2022/10/13 16:30:49;;;;;;;9.50;5.20;;;;;;;23.30;52.54;100774.06;20659493;28;20121;-72
2022/10/13 16:40:50;;;;;;;9.50;5.40;;;;;;;23.25;52.84;100776.25;20661711;28;20408;-72
2022/10/13 16:50:54;;;;;;;6.82;5.03;;;;;;;23.26;53.21;100776.13;20662485;28;20042;-72
2022/10/13 17:01:07;;;;;;;8.35;5.05;;;;;;;23.24;52.96;100785.13;20657368;28;20073;-71
2022/10/13 17:11:13;;;;;;;10.93;5.57;;;;;;;23.24;53.92;100790.41;20654965;28;20065;-75
2022/10/13 17:21:16;;;;;;;16.10;5.97;;;;;;;23.18;53.98;100794.41;20634950;28;20176;-77
2022/10/13 17:31:22;;;;;;;;;;;;;;;23.17;54.61;100792.72;20644496;28;20045;-77
2022/10/13 17:41:23;;;;;;;11.27;5.63;;;;;;;23.18;55.04;100786.47;20659392;28;19928;-75
2022/10/13 17:51:24;;;;;;;12.13;5.88;;;;;;;23.20;55.08;100781.91;20666759;28;20126;-74
2022/10/13 18:01:26;;;;;;;9.93;6.05;;;;;;;23.21;55.30;100785.38;20659633;28;20045;-76
2022/10/13 18:11:27;;;;;;;10.18;6.20;;;;;;;23.20;55.88;100783.72;20655910;28;20038;-76
2022/10/13 18:21:28;;;;;;;10.98;5.90;;;;;;;23.22;56.14;100785.25;20657212;28;20568;-76
2022/10/13 18:31:31;;;;;;;13.20;6.47;;;;;;;23.23;56.55;100781.66;20654532;28;20053;-77
2022/10/13 18:41:33;;;;;;;14.80;7.60;;;;;;;23.24;56.96;100770.13;20639840;28;20041;-70
2022/10/13 18:51:34;;;;;;;19.63;8.90;;;;;;;23.22;56.11;100763.28;20635972;28;20352;-73
2022/10/13 19:01:37;;;;;;;16.17;8.30;;;;;;;23.23;56.47;100762.31;20671774;28;20050;-74
2022/10/13 19:11:39;;;;;;;14.45;8.57;;;;;;;23.17;56.58;100763.66;20646392;28;20053;-72
2022/10/13 19:21:40;;;;;;;16.77;8.27;;;;;;;23.11;56.48;100762.31;20641176;28;20539;-73
2022/10/13 19:31:41;;;;;;;14.50;7.53;;;;;;;23.12;55.95;100765.78;20664373;28;20080;-73
2022/10/13 19:41:44;;;;;;;12.65;8.18;;;;;;;23.12;55.84;100766.63;20674790;28;20045;-72
2022/10/13 19:51:45;;;;;;;14.15;7.40;;;;;;;23.09;56.01;100761.59;20683331;28;20057;-72
2022/10/13 20:01:46;;;;;;;13.40;7.67;;;;;;;23.10;56.29;100773.00;20686685;28;20088;-72
2022/10/13 20:11:49;;;;;;;12.95;8.18;;;;;;;23.07;55.96;100771.44;20679198;28;20057;-72
2022/10/13 20:21:52;;;;;;;11.38;7.68;;;;;;;23.05;55.82;100768.09;20692290;28;20042;-73
2022/10/13 20:31:52;;;;;;;12.40;7.78;;;;;;;23.03;55.93;100778.78;20667782;28;20045;-72
2022/10/13 20:41:53;;;;;;;10.55;7.50;;;;;;;22.99;56.21;100777.31;20649707;28;20051;-75
2022/10/13 20:51:53;;;;;;;10.85;7.35;;;;;;;22.99;56.09;100773.84;20656002;28;20045;-72
2022/10/13 21:01:53;;;;;;;14.50;7.60;;;;;;;22.98;56.31;100774.81;20682330;28;20054;-72
2022/10/13 21:11:54;;;;;;;11.77;7.60;;;;;;;22.98;55.63;100769.53;20664019;28;20476;-72
2022/10/13 21:21:54;;;;;;;12.63;7.65;;;;;;;22.98;55.24;100770.34;20676463;28;20440;-71
2022/10/13 21:31:56;;;;;;;11.60;8.20;;;;;;;22.98;55.68;100767.72;20653446;28;20050;-72
2022/10/13 21:41:56;;;;;;;11.65;7.72;;;;;;;22.97;55.60;100763.41;20648191;28;20046;-72
2022/10/13 21:51:56;;;;;;;9.73;7.45;;;;;;;22.97;55.32;100763.41;20639897;28;20129;-71
2022/10/13 22:01:58;;;;;;;9.80;6.90;;;;;;;22.95;55.79;100757.41;20645891;28;20069;-72
2022/10/13 22:12:01;;;;;;;9.55;7.22;;;;;;;22.93;55.84;100756.69;20646058;28;20042;-72
2022/10/13 22:22:02;;;;;;;11.48;7.82;;;;;;;22.93;55.54;100758.50;20645892;28;20522;-72
2022/10/13 22:32:03;;;;;;;10.17;7.10;;;;;;;22.90;56.01;100751.66;20649618;28;20081;-70
2022/10/13 22:42:03;;;;;;;9.98;7.20;;;;;;;22.89;56.25;100749.97;20624293;28;20296;-72
2022/10/13 22:52:04;;;;;;;8.98;6.80;;;;;;;22.85;55.75;100738.81;20649202;28;20377;-70
2022/10/13 23:02:04;;;;;;;9.40;7.18;;;;;;;22.84;55.72;100738.94;20650354;28;20053;-70
2022/10/13 23:12:05;;;;;;;10.50;6.97;;;;;;;22.84;55.91;100739.78;20643793;28;20413;-71
2022/10/13 23:22:05;;;;;;;10.48;7.20;;;;;;;22.81;56.29;100740.03;20647137;28;20295;-71
2022/10/13 23:32:06;;;;;;;10.55;7.80;;;;;;;22.80;55.94;100733.06;20645556;28;20504;-71
2022/10/13 23:42:06;;;;;;;8.70;7.15;;;;;;;22.79;56.25;100722.59;20655288;28;20409;-71
2022/10/13 23:52:06;;;;;;;10.10;7.25;;;;;;;22.79;56.35;100733.16;20660834;28;20060;-71
